createdAt,value
2022-12-08T00:02:22.084Z,96.82
2022-12-08T00:05:07.479Z,96.72
2022-12-08T00:07:52.786Z,96.22
2022-12-08T00:10:46.724Z,96.31
2022-12-08T00:13:05.619Z,95.84
2022-12-08T00:15:32.028Z,95.70
2022-12-08T00:17:58.398Z,95.75
2022-12-08T00:20:24.785Z,95.29
2022-12-08T00:22:51.173Z,95.40
2022-12-08T00:25:17.570Z,95.04
2022-12-08T00:27:44.017Z,95.16
2022-12-08T00:30:11.019Z,95.37
2022-12-08T00:32:38.141Z,95.22
2022-12-08T00:35:05.177Z,95.07
2022-12-08T00:37:31.831Z,94.93
2022-12-08T00:39:58.212Z,94.99
2022-12-08T00:42:24.607Z,94.50
2022-12-08T00:44:51.126Z,94.62
2022-12-08T00:47:22.129Z,94.37
2022-12-08T00:49:51.012Z,94.56
2022-12-08T00:52:17.440Z,94.70
2022-12-08T00:54:43.848Z,94.57
2022-12-08T00:57:10.278Z,94.67
2022-12-08T00:59:36.693Z,94.59
2022-12-08T01:02:03.195Z,94.42
2022-12-08T01:04:29.593Z,94.08
2022-12-08T01:06:56.297Z,93.91
2022-12-08T01:09:22.982Z,93.79
2022-12-08T01:11:49.491Z,93.64
2022-12-08T01:14:15.972Z,93.67
2022-12-08T01:16:43.518Z,93.67
2022-12-08T01:19:13.218Z,93.60
2022-12-08T01:21:40.953Z,93.46
2022-12-08T01:24:10.629Z,93.48
2022-12-08T01:26:37.037Z,93.37
2022-12-08T01:29:03.410Z,93.34
2022-12-08T01:31:29.821Z,93.34
2022-12-08T01:33:56.360Z,93.07
2022-12-08T01:36:25.806Z,93.18
2022-12-08T01:38:53.513Z,93.33
2022-12-08T01:41:22.911Z,93.21
2022-12-08T01:43:57.033Z,93.32
2022-12-08T01:46:24.578Z,93.70
2022-12-08T01:48:56.570Z,93.98
2022-12-08T01:51:23.116Z,94.32
2022-12-08T01:53:49.964Z,94.57
2022-12-08T01:56:24.114Z,94.67
2022-12-08T01:58:52.975Z,95.05
2022-12-08T02:01:19.434Z,95.33
2022-12-08T02:04:04.896Z,95.27
2022-12-08T02:06:36.205Z,95.33
2022-12-08T02:09:03.470Z,95.18
2022-12-08T02:11:29.948Z,95.02
2022-12-08T02:13:58.747Z,95.20
2022-12-08T02:16:40.755Z,95.17
2022-12-08T02:19:32.237Z,95.11
2022-12-08T02:22:00.878Z,94.92
2022-12-08T02:24:36.189Z,94.73
2022-12-08T02:27:29.684Z,94.82
2022-12-08T02:30:05.260Z,94.59
2022-12-08T02:33:06.112Z,94.55
2022-12-08T02:35:57.776Z,94.29
2022-12-08T02:38:38.277Z,94.31
2022-12-08T02:41:26.092Z,93.90
2022-12-08T02:44:12.615Z,93.75
2022-12-08T02:46:52.755Z,93.74
2022-12-08T02:49:19.125Z,93.87
2022-12-08T02:51:45.608Z,93.45
2022-12-08T02:54:13.037Z,93.46
2022-12-08T02:57:05.381Z,93.51
2022-12-08T02:59:40.895Z,93.05
2022-12-08T03:02:10.117Z,93.07
2022-12-08T03:05:21.890Z,93.01
2022-12-08T03:08:12.214Z,92.90
2022-12-08T03:11:05.007Z,92.78
2022-12-08T03:13:45.135Z,92.87
2022-12-08T03:16:15.818Z,92.65
2022-12-08T03:18:47.989Z,92.60
2022-12-08T03:21:17.481Z,92.62
2022-12-08T03:23:46.496Z,92.32
2022-12-08T03:26:24.886Z,92.20
2022-12-08T03:28:51.458Z,91.92
2022-12-08T03:31:19.749Z,92.00
2022-12-08T03:33:51.635Z,91.92
2022-12-08T03:36:19.492Z,91.76
2022-12-08T03:38:49.999Z,91.45
2022-12-08T03:41:19.424Z,91.36
2022-12-08T03:43:52.181Z,91.60
2022-12-08T03:48:46.263Z,91.47
2022-12-08T03:51:12.934Z,91.43
2022-12-08T03:53:39.473Z,91.27
2022-12-08T03:56:26.110Z,91.43
2022-12-08T03:58:54.218Z,91.20
2022-12-08T04:01:21.585Z,90.81
2022-12-08T04:03:48.513Z,90.72
2022-12-08T04:06:15.599Z,90.89
2022-12-08T04:08:42.387Z,90.95
2022-12-08T04:11:09.281Z,91.15
2022-12-08T04:13:38.061Z,90.99
2022-12-08T04:16:05.583Z,91.00
2022-12-08T04:18:33.030Z,91.06
2022-12-08T04:20:59.484Z,90.95
2022-12-08T04:23:25.957Z,91.13
2022-12-08T04:25:53.363Z,91.22
2022-12-08T04:28:20.057Z,90.98
2022-12-08T04:30:48.481Z,91.00
2022-12-08T04:33:14.918Z,90.82
2022-12-08T04:35:41.455Z,90.86
2022-12-08T04:38:07.830Z,90.75
2022-12-08T04:40:34.217Z,90.91
2022-12-08T04:43:00.603Z,90.91
2022-12-08T04:45:26.972Z,91.20
2022-12-08T04:47:53.354Z,91.18
2022-12-08T04:50:19.841Z,91.27
2022-12-08T04:52:46.250Z,91.17
2022-12-08T04:55:12.643Z,91.49
2022-12-08T04:57:39.112Z,91.00
2022-12-08T05:00:06.528Z,91.01
2022-12-08T05:02:33.201Z,91.33
2022-12-08T05:05:00.051Z,91.50
2022-12-08T05:07:26.677Z,91.42
2022-12-08T05:09:53.168Z,91.54
2022-12-08T05:12:19.594Z,91.69
2022-12-08T05:14:48.291Z,91.61
2022-12-08T05:17:16.651Z,91.39
2022-12-08T05:19:43.109Z,91.27
2022-12-08T05:22:09.553Z,91.24
2022-12-08T05:24:36.073Z,91.21
2022-12-08T05:27:02.549Z,91.10
2022-12-08T05:29:29.022Z,90.68
2022-12-08T05:31:55.578Z,91.05
2022-12-08T05:34:22.091Z,90.85
2022-12-08T05:36:48.501Z,90.85
2022-12-08T05:39:15.531Z,90.89
2022-12-08T05:41:42.106Z,91.07
2022-12-08T05:44:08.653Z,91.12
2022-12-08T05:46:35.287Z,91.00
2022-12-08T05:49:03.034Z,91.29
2022-12-08T05:51:29.707Z,91.13
2022-12-08T05:53:56.773Z,91.34
2022-12-08T05:56:23.477Z,91.36
2022-12-08T05:58:50.793Z,91.30
2022-12-08T06:01:26.183Z,91.51
2022-12-08T06:03:52.723Z,91.95
2022-12-08T06:06:19.954Z,91.97
2022-12-08T06:08:48.674Z,92.16
2022-12-08T06:11:22.801Z,91.92
2022-12-08T06:13:50.010Z,91.85
2022-12-08T06:16:16.601Z,92.20
2022-12-08T06:18:43.149Z,92.42
2022-12-08T06:21:12.448Z,92.48
2022-12-08T06:23:39.687Z,92.58
2022-12-08T06:26:14.402Z,92.64
2022-12-08T06:28:42.308Z,93.01
2022-12-08T06:31:16.270Z,93.22
2022-12-08T06:33:43.079Z,93.33
2022-12-08T06:36:11.850Z,93.88
2022-12-08T06:38:43.146Z,94.18
2022-12-08T06:41:11.277Z,94.28
2022-12-08T06:43:37.809Z,94.74
2022-12-08T06:46:07.775Z,94.85
2022-12-08T06:48:34.582Z,94.90
2022-12-08T06:51:09.154Z,94.80
2022-12-08T06:53:35.742Z,95.00
2022-12-08T06:56:02.681Z,95.10
2022-12-08T06:58:29.350Z,95.18
2022-12-08T07:00:55.870Z,95.39
2022-12-08T07:03:22.350Z,95.56
2022-12-08T07:05:49.061Z,95.66
2022-12-08T07:08:15.707Z,95.45
2022-12-08T07:10:42.186Z,95.68
2022-12-08T07:13:08.646Z,95.76
2022-12-08T07:15:35.027Z,96.21
2022-12-08T07:18:01.396Z,96.04
2022-12-08T07:20:28.103Z,96.13
2022-12-08T07:22:54.701Z,96.43
2022-12-08T07:25:21.650Z,96.17
2022-12-08T07:27:48.135Z,96.34
2022-12-08T07:30:15.050Z,96.46
2022-12-08T07:32:41.836Z,96.73
2022-12-08T07:35:08.844Z,96.90
2022-12-08T07:37:36.418Z,97.55
2022-12-08T07:40:04.636Z,97.23
2022-12-08T07:42:31.322Z,97.47
2022-12-08T07:44:57.718Z,97.87
2022-12-08T07:47:24.075Z,97.71
2022-12-08T07:49:50.444Z,97.40
2022-12-08T07:52:16.883Z,97.96
2022-12-08T07:54:43.345Z,98.33
2022-12-08T07:57:09.802Z,98.70
2022-12-08T07:59:36.223Z,98.78
2022-12-08T08:02:22.689Z,98.58
2022-12-08T08:04:52.203Z,98.96
2022-12-08T08:07:18.635Z,98.77
2022-12-08T08:09:45.774Z,99.33
2022-12-08T08:15:00.716Z,99.65
2022-12-08T08:17:27.902Z,99.57
2022-12-08T08:19:54.332Z,99.85
2022-12-08T08:22:20.772Z,100.00
2022-12-08T08:24:47.181Z,100.00
2022-12-08T08:27:13.953Z,100.00
2022-12-08T08:29:40.361Z,100.00
2022-12-08T08:32:06.720Z,100.00
2022-12-08T08:34:33.123Z,100.00
2022-12-08T08:36:59.659Z,100.00
2022-12-08T08:39:26.206Z,100.00
2022-12-08T08:41:52.785Z,100.00
2022-12-08T08:44:19.228Z,100.00
2022-12-08T08:46:45.703Z,100.00
2022-12-08T08:49:12.121Z,100.00
2022-12-08T08:51:38.652Z,100.00
2022-12-08T08:54:05.120Z,100.00
2022-12-08T08:56:31.690Z,100.00
2022-12-08T08:58:58.178Z,100.00
2022-12-08T09:01:27.414Z,100.00
2022-12-08T09:03:55.144Z,100.00
2022-12-08T09:06:22.426Z,100.00
2022-12-08T09:08:50.050Z,100.00
2022-12-08T09:11:18.665Z,100.00
2022-12-08T09:13:48.843Z,100.00
2022-12-08T09:16:15.595Z,100.00
2022-12-08T09:18:42.065Z,100.00
2022-12-08T09:21:13.190Z,100.00
2022-12-08T09:23:39.994Z,100.00
2022-12-08T09:26:06.935Z,100.00
2022-12-08T09:28:33.554Z,100.00
2022-12-08T09:31:00.194Z,100.00
2022-12-08T09:33:26.703Z,100.00
2022-12-08T09:35:53.471Z,100.00
2022-12-08T09:38:20.024Z,100.00
2022-12-08T09:40:52.492Z,100.00
2022-12-08T09:44:04.506Z,100.00
2022-12-08T09:46:34.282Z,99.81
2022-12-08T09:49:02.603Z,99.61
2022-12-08T09:51:38.534Z,99.60
2022-12-08T09:54:17.359Z,99.23
2022-12-08T09:56:43.960Z,99.28
2022-12-08T09:59:22.396Z,99.19
2022-12-08T10:01:49.125Z,99.22
2022-12-08T10:04:34.945Z,99.03
2022-12-08T10:07:27.425Z,99.10
2022-12-08T10:10:18.901Z,98.58
2022-12-08T10:13:06.690Z,98.15
2022-12-08T10:15:41.613Z,97.66
2022-12-08T10:18:23.057Z,97.89
2022-12-08T10:20:51.161Z,97.60
2022-12-08T10:23:33.199Z,97.41
2022-12-08T10:26:06.508Z,97.12
2022-12-08T10:28:37.678Z,96.64
2022-12-08T10:31:15.155Z,95.76
2022-12-08T10:33:41.573Z,95.15
2022-12-08T10:36:11.166Z,94.83
2022-12-08T10:38:39.634Z,95.20
2022-12-08T10:41:08.998Z,95.52
2022-12-08T10:43:38.444Z,95.69
2022-12-08T10:46:13.173Z,95.71
2022-12-08T10:49:03.066Z,96.07
2022-12-08T10:51:35.179Z,96.37
2022-12-08T10:54:01.913Z,95.80
2022-12-08T10:56:30.451Z,95.55
2022-12-08T10:59:17.279Z,95.40
2022-12-08T11:01:51.440Z,95.63
2022-12-08T11:04:36.479Z,95.56
2022-12-08T11:07:06.040Z,95.66
2022-12-08T11:09:37.682Z,95.12
2022-12-08T11:12:15.785Z,94.58
2022-12-08T11:14:42.097Z,94.29
2022-12-08T11:17:13.005Z,94.51
2022-12-08T11:19:41.904Z,94.52
2022-12-08T11:22:32.471Z,94.83
2022-12-08T11:25:20.833Z,95.01
2022-12-08T11:27:53.594Z,94.80
2022-12-08T11:30:27.270Z,94.35
2022-12-08T11:33:03.379Z,94.42
2022-12-08T11:35:37.470Z,94.83
2022-12-08T11:38:24.597Z,94.76
2022-12-08T11:40:55.836Z,94.41
2022-12-08T11:43:34.902Z,94.41
2022-12-08T11:46:14.068Z,94.26
2022-12-08T11:49:06.745Z,94.03
2022-12-08T11:51:38.530Z,93.38
2022-12-08T11:54:33.664Z,93.19
2022-12-08T11:57:03.649Z,93.13
2022-12-08T11:59:34.691Z,93.28
2022-12-08T12:02:03.831Z,92.95
2022-12-08T12:04:52.623Z,92.27
2022-12-08T12:07:30.970Z,91.81
2022-12-08T12:10:18.256Z,92.05
2022-12-08T12:13:02.596Z,91.53
2022-12-08T12:15:50.786Z,91.43
2022-12-08T12:18:47.685Z,91.15
2022-12-08T12:21:20.187Z,90.99
2022-12-08T12:23:53.682Z,90.87
2022-12-08T12:26:26.239Z,91.18
2022-12-08T12:28:57.796Z,91.30
2022-12-08T12:31:29.516Z,90.84
2022-12-08T12:34:08.517Z,90.37
2022-12-08T12:36:55.488Z,90.26
2022-12-08T12:39:31.869Z,90.38
2022-12-08T12:42:01.366Z,90.86
2022-12-08T12:44:27.709Z,90.81
2022-12-08T12:46:58.720Z,90.23
2022-12-08T12:49:40.595Z,90.15
2022-12-08T12:52:09.839Z,90.26
2022-12-08T12:54:36.343Z,89.97
2022-12-08T12:57:05.576Z,89.85
2022-12-08T12:59:34.951Z,89.83
2022-12-08T13:02:02.595Z,90.11
2022-12-08T13:04:37.414Z,90.29
2022-12-08T13:07:05.011Z,90.14
2022-12-08T13:09:39.657Z,90.26
2022-12-08T13:12:12.164Z,90.78
2022-12-08T13:14:47.488Z,90.64
2022-12-08T13:17:27.404Z,90.37
2022-12-08T13:19:57.699Z,90.33
2022-12-08T13:23:21.501Z,90.06
2022-12-08T13:25:51.187Z,89.85
2022-12-08T13:28:24.453Z,89.66
2022-12-08T13:31:02.076Z,89.70
2022-12-08T13:33:32.418Z,89.82
2022-12-08T13:36:31.140Z,89.74
2022-12-08T13:38:59.069Z,89.73
2022-12-08T13:41:43.244Z,89.72
2022-12-08T13:58:42.161Z,89.48
2022-12-08T14:01:23.394Z,89.76
2022-12-08T14:04:31.062Z,89.31
2022-12-08T14:06:45.921Z,89.46
2022-12-08T14:09:16.384Z,89.25
2022-12-08T14:11:47.877Z,89.12
2022-12-08T14:14:46.026Z,89.19
2022-12-08T14:17:14.041Z,89.21
2022-12-08T14:19:52.157Z,89.42
2022-12-08T14:22:18.920Z,89.43
2022-12-08T14:24:51.343Z,89.59
2022-12-08T14:27:26.860Z,89.75
2022-12-08T14:29:57.010Z,89.82
2022-12-08T14:32:59.848Z,90.04
2022-12-08T14:35:34.987Z,90.30
2022-12-08T14:38:12.228Z,90.39
2022-12-08T14:40:44.327Z,90.72
2022-12-08T14:43:10.766Z,90.72
2022-12-08T14:45:43.002Z,90.90
2022-12-08T14:48:30.819Z,90.97
2022-12-08T14:51:03.347Z,90.90
2022-12-08T14:53:53.006Z,91.27
2022-12-08T14:56:22.471Z,91.21
2022-12-08T14:58:51.227Z,91.53
2022-12-08T15:01:23.450Z,91.58
2022-12-08T15:03:51.567Z,91.77
2022-12-08T15:06:21.168Z,91.86
2022-12-08T15:08:58.682Z,91.98
2022-12-08T15:11:25.027Z,92.08
2022-12-08T15:13:54.418Z,92.06
2022-12-08T15:16:28.772Z,92.30
2022-12-08T15:19:21.417Z,92.77
2022-12-08T15:21:47.895Z,92.60
2022-12-08T15:24:15.481Z,92.75
2022-12-08T15:26:47.144Z,92.93
2022-12-08T15:29:22.912Z,92.94
2022-12-08T15:31:52.268Z,93.11
2022-12-08T15:34:20.189Z,93.15
2022-12-08T15:36:47.593Z,93.25
2022-12-08T15:39:33.615Z,93.54
2022-12-08T15:42:01.440Z,93.62
2022-12-08T15:44:29.158Z,93.28
2022-12-08T15:46:56.017Z,93.52
2022-12-08T15:49:23.903Z,93.46
2022-12-08T15:51:57.400Z,93.52
2022-12-08T15:54:31.373Z,93.61
2022-12-08T15:59:45.068Z,93.34
2022-12-08T16:02:16.709Z,93.41
2022-12-08T16:05:33.409Z,93.48
2022-12-08T16:07:37.906Z,93.40
2022-12-08T16:10:06.661Z,93.40
2022-12-08T16:16:00.674Z,93.47
2022-12-08T16:18:34.466Z,93.60
2022-12-08T16:21:41.753Z,93.59
2022-12-08T16:23:48.266Z,94.04
2022-12-08T16:26:54.540Z,93.84
2022-12-08T16:29:08.102Z,93.90
2022-12-08T16:31:35.244Z,93.99
2022-12-08T16:34:01.865Z,93.93
2022-12-08T16:36:28.288Z,94.16
2022-12-08T16:38:54.667Z,94.04
2022-12-08T16:41:39.931Z,94.21
2022-12-08T16:44:06.422Z,94.34
2022-12-08T16:46:33.247Z,94.33
2022-12-08T16:48:59.704Z,94.48
2022-12-08T16:51:27.318Z,94.31
2022-12-08T16:53:54.115Z,94.08
2022-12-08T16:56:22.264Z,94.48
2022-12-08T16:58:49.878Z,94.10
2022-12-08T17:01:18.333Z,94.21
2022-12-08T17:04:01.342Z,93.93
2022-12-08T17:06:32.629Z,94.09
2022-12-08T17:08:59.651Z,94.24
2022-12-08T17:11:28.389Z,94.65
2022-12-08T17:13:54.844Z,94.64
2022-12-08T17:16:21.878Z,94.53
2022-12-08T17:18:48.646Z,94.84
2022-12-08T17:21:17.446Z,94.93
2022-12-08T17:23:44.270Z,95.14
2022-12-08T17:26:10.975Z,95.18
2022-12-08T17:28:59.328Z,95.12
2022-12-08T17:31:29.415Z,95.38
2022-12-08T17:33:59.514Z,95.30
2022-12-08T17:36:25.989Z,95.36
2022-12-08T17:38:52.536Z,95.67
2022-12-08T17:41:18.968Z,95.71
2022-12-08T17:43:45.392Z,95.76
2022-12-08T17:46:17.037Z,96.04
2022-12-08T17:48:43.504Z,96.21
2022-12-08T17:51:10.490Z,96.18
2022-12-08T17:53:37.793Z,95.77
2022-12-08T17:56:04.403Z,95.70
2022-12-08T17:58:31.270Z,95.73
2022-12-08T18:00:57.695Z,95.70
2022-12-08T18:03:24.114Z,95.43
2022-12-08T18:05:51.033Z,95.64
2022-12-08T18:08:17.519Z,95.80
2022-12-08T18:10:44.133Z,95.76
2022-12-08T18:13:10.580Z,96.07
2022-12-08T18:15:39.309Z,96.10
2022-12-08T18:18:05.999Z,95.81
2022-12-08T18:20:32.476Z,95.92
2022-12-08T18:22:58.959Z,95.82
2022-12-08T18:25:25.541Z,95.98
2022-12-08T18:27:51.949Z,96.04
2022-12-08T18:30:18.673Z,96.23
2022-12-08T18:32:45.956Z,96.59
2022-12-08T18:35:13.350Z,96.54
2022-12-08T18:37:39.952Z,96.73
2022-12-08T18:40:07.201Z,96.96
2022-12-08T18:42:33.860Z,96.95
2022-12-08T18:45:04.434Z,97.18
2022-12-08T18:47:36.267Z,96.97
2022-12-08T18:50:04.585Z,97.20
2022-12-08T18:52:32.628Z,97.23
2022-12-08T18:55:07.684Z,97.20
2022-12-08T18:57:37.543Z,97.12
2022-12-08T19:00:06.143Z,97.07
2022-12-08T19:02:34.052Z,97.05
2022-12-08T19:05:01.234Z,97.01
2022-12-08T19:07:27.624Z,97.21
2022-12-08T19:09:54.556Z,97.24
2022-12-08T19:12:20.948Z,97.21
2022-12-08T19:14:47.438Z,97.15
2022-12-08T19:17:14.014Z,97.33
2022-12-08T19:19:40.420Z,97.15
2022-12-08T19:22:06.874Z,97.45
2022-12-08T19:24:34.818Z,97.53
2022-12-08T19:27:01.253Z,97.55
2022-12-08T19:29:27.641Z,97.56
2022-12-08T19:31:54.367Z,97.76
2022-12-08T19:34:21.172Z,97.73
2022-12-08T19:36:47.823Z,97.90
2022-12-08T19:39:38.863Z,97.79
2022-12-08T19:42:38.903Z,97.93
2022-12-08T19:45:12.115Z,98.18
2022-12-08T19:47:39.774Z,98.23
2022-12-08T19:50:27.124Z,98.06
2022-12-08T19:52:54.406Z,98.28
2022-12-08T19:55:21.064Z,98.20
2022-12-08T19:57:47.631Z,98.16
2022-12-08T20:00:14.823Z,97.94
2022-12-08T20:02:42.170Z,97.79
2022-12-08T20:05:13.756Z,97.82
2022-12-08T20:07:40.656Z,97.40
2022-12-08T20:10:15.578Z,97.14
2022-12-08T20:12:42.080Z,97.08
2022-12-08T20:15:10.160Z,97.07
2022-12-08T20:17:37.876Z,96.74
2022-12-08T20:20:07.573Z,96.83
2022-12-08T20:22:34.707Z,96.88
2022-12-08T20:25:01.310Z,96.81
2022-12-08T20:27:29.111Z,96.91
2022-12-08T20:29:55.622Z,96.86
2022-12-08T20:32:22.123Z,96.78
2022-12-08T20:34:48.534Z,96.84
2022-12-08T20:37:14.999Z,96.85
2022-12-08T20:39:41.434Z,97.17
2022-12-08T20:42:12.843Z,97.35
2022-12-08T20:44:43.397Z,97.53
2022-12-08T20:47:11.148Z,97.72
2022-12-08T20:49:37.860Z,97.75
2022-12-08T20:52:04.841Z,97.90
2022-12-08T20:54:31.364Z,98.05
2022-12-08T20:56:57.848Z,98.23
2022-12-08T20:59:26.352Z,98.58
2022-12-08T21:01:54.007Z,98.85
2022-12-08T21:04:21.513Z,99.04
2022-12-08T21:06:49.045Z,99.11
2022-12-08T21:09:15.842Z,99.50
2022-12-08T21:11:42.479Z,99.92
2022-12-08T21:14:08.897Z,99.97
2022-12-08T21:16:36.046Z,100.00
2022-12-08T21:19:02.683Z,100.00
2022-12-08T21:21:29.370Z,100.00
2022-12-08T21:23:55.893Z,99.96
2022-12-08T21:26:26.121Z,99.91
2022-12-08T21:28:57.891Z,99.72
2022-12-08T21:31:26.628Z,99.52
2022-12-08T21:33:55.122Z,99.40
2022-12-08T21:36:21.775Z,99.09
2022-12-08T21:38:48.997Z,98.85
2022-12-08T21:41:39.068Z,98.69
2022-12-08T21:44:07.338Z,98.69
2022-12-08T21:46:34.150Z,98.50
2022-12-08T21:49:01.212Z,98.65
2022-12-08T21:51:28.069Z,98.78
2022-12-08T21:53:54.822Z,98.82
2022-12-08T21:56:21.691Z,98.42
2022-12-08T21:58:48.256Z,98.08
2022-12-08T22:01:14.964Z,98.02
2022-12-08T22:03:41.962Z,97.98
2022-12-08T22:06:11.258Z,97.85
2022-12-08T22:08:38.039Z,97.91
2022-12-08T22:11:05.801Z,98.14
2022-12-08T22:13:38.389Z,98.04
2022-12-08T22:16:07.602Z,97.95
2022-12-08T22:18:34.763Z,98.02
2022-12-08T22:21:02.570Z,98.08
2022-12-08T22:23:29.280Z,98.11
2022-12-08T22:25:58.485Z,98.25
2022-12-08T22:28:33.095Z,98.14
2022-12-08T22:31:00.378Z,98.47
2022-12-08T22:33:29.769Z,98.37
2022-12-08T22:36:08.089Z,98.26
2022-12-08T22:38:36.446Z,98.38
2022-12-08T22:41:05.217Z,98.40
2022-12-08T22:43:33.185Z,98.25
2022-12-08T22:46:00.004Z,98.28
2022-12-08T22:48:26.494Z,98.08
2022-12-08T22:50:59.726Z,98.36
2022-12-08T22:53:26.387Z,98.57
2022-12-08T22:55:52.908Z,98.47
2022-12-08T22:58:19.910Z,98.40
2022-12-08T23:00:46.636Z,98.41
2022-12-08T23:03:13.123Z,98.27
2022-12-08T23:05:39.973Z,98.49
2022-12-08T23:08:08.346Z,98.52
2022-12-08T23:10:35.868Z,98.53
2022-12-08T23:13:04.224Z,98.66
2022-12-08T23:15:31.773Z,98.49
2022-12-08T23:17:58.211Z,98.38
2022-12-08T23:20:24.909Z,98.37
2022-12-08T23:22:51.702Z,98.28
2022-12-08T23:25:18.570Z,98.30
2022-12-08T23:27:46.198Z,98.34
2022-12-08T23:30:13.716Z,98.55
2022-12-08T23:32:40.471Z,98.59
2022-12-08T23:35:07.986Z,98.41
2022-12-08T23:37:34.912Z,98.72
2022-12-08T23:40:01.544Z,98.72
2022-12-08T23:42:30.447Z,98.76
2022-12-08T23:44:57.059Z,99.00
2022-12-08T23:47:23.677Z,98.55
2022-12-08T23:49:50.381Z,98.53
2022-12-08T23:52:17.047Z,98.67
2022-12-08T23:54:44.861Z,98.66
2022-12-08T23:57:11.676Z,98.58
2022-12-08T23:59:38.213Z,98.62
